createdAt,value
2018-07-12T00:00:29.309Z,18.48
2018-07-12T00:02:56.543Z,18.80
2018-07-12T00:05:22.776Z,18.80
2018-07-12T00:07:49.067Z,19.05
2018-07-12T00:10:15.279Z,19.20
2018-07-12T00:12:41.390Z,19.12
2018-07-12T00:15:08.192Z,18.83
2018-07-12T00:17:34.339Z,18.83
2018-07-12T00:20:01.211Z,18.70
2018-07-12T00:22:27.360Z,18.55
2018-07-12T00:24:53.508Z,18.57
2018-07-12T00:27:19.658Z,18.62
2018-07-12T00:29:46.878Z,18.60
2018-07-12T00:32:13.703Z,18.78
2018-07-12T00:34:39.800Z,18.81
2018-07-12T00:37:05.975Z,18.89
2018-07-12T00:39:32.166Z,18.93
2018-07-12T00:41:58.309Z,18.91
2018-07-12T00:44:24.467Z,18.90
2018-07-12T00:46:54.312Z,19.17
2018-07-12T00:49:21.175Z,18.95
2018-07-12T00:51:47.331Z,18.89
2018-07-12T00:54:13.517Z,18.84
2018-07-12T00:56:39.723Z,18.89
2018-07-12T00:59:05.880Z,18.98
2018-07-12T01:01:32.186Z,19.18
2018-07-12T01:03:59.443Z,18.98
2018-07-12T01:06:25.674Z,19.35
2018-07-12T01:08:51.820Z,19.03
2018-07-12T01:11:18.008Z,18.99
2018-07-12T01:13:46.694Z,19.28
2018-07-12T01:16:15.891Z,19.10
2018-07-12T01:18:42.247Z,19.16
2018-07-12T01:21:08.440Z,19.00
2018-07-12T01:23:36.604Z,18.87
2018-07-12T01:26:05.822Z,18.77
2018-07-12T01:28:33.680Z,19.03
2018-07-12T01:30:59.968Z,18.80
2018-07-12T01:33:27.210Z,18.77
2018-07-12T01:35:53.497Z,18.81
2018-07-12T01:38:21.710Z,18.87
2018-07-12T01:40:49.728Z,18.97
2018-07-12T01:43:16.675Z,19.04
2018-07-12T01:45:42.810Z,19.34
2018-07-12T01:48:08.984Z,19.13
2018-07-12T01:50:35.100Z,19.12
2018-07-12T01:53:02.220Z,19.23
2018-07-12T01:55:28.355Z,19.29
2018-07-12T01:57:55.234Z,18.95
2018-07-12T02:00:23.422Z,18.79
2018-07-12T02:02:49.574Z,18.60
2018-07-12T02:05:16.038Z,18.63
2018-07-12T02:07:42.271Z,18.84
2018-07-12T02:10:09.496Z,18.69
2018-07-12T02:12:35.700Z,18.69
2018-07-12T02:15:02.886Z,18.71
2018-07-12T02:17:33.676Z,18.67
2018-07-12T02:20:00.931Z,18.85
2018-07-12T02:22:30.149Z,18.47
2018-07-12T02:24:57.348Z,18.70
2018-07-12T02:27:26.448Z,18.79
2018-07-12T02:29:52.638Z,18.76
2018-07-12T02:32:19.857Z,18.78
2018-07-12T02:34:46.021Z,18.97
2018-07-12T02:37:13.233Z,18.74
2018-07-12T02:39:42.347Z,18.81
2018-07-12T02:42:09.283Z,19.02
2018-07-12T02:44:36.467Z,19.10
2018-07-12T02:47:02.745Z,19.17
2018-07-12T02:49:28.873Z,19.07
2018-07-12T02:51:55.015Z,18.70
2018-07-12T02:54:21.166Z,18.54
2018-07-12T02:56:47.340Z,18.45
2018-07-12T02:59:18.716Z,18.41
2018-07-12T03:01:46.813Z,18.39
2018-07-12T03:04:12.943Z,18.35
2018-07-12T03:06:39.126Z,18.35
2018-07-12T03:09:06.478Z,18.88
2018-07-12T03:11:34.566Z,18.85
2018-07-12T03:14:00.744Z,19.03
2018-07-12T03:16:26.921Z,18.52
2018-07-12T03:18:55.200Z,18.98
2018-07-12T03:21:24.396Z,19.04
2018-07-12T03:23:50.559Z,18.37
2018-07-12T03:26:16.705Z,18.97
2018-07-12T03:28:42.862Z,19.12
2018-07-12T03:31:11.090Z,18.63
2018-07-12T03:33:38.751Z,18.50
2018-07-12T03:36:04.919Z,18.77
2018-07-12T03:38:32.170Z,18.36
2018-07-12T03:40:59.256Z,18.72
2018-07-12T03:43:25.420Z,18.32
2018-07-12T03:45:51.591Z,18.26
2018-07-12T03:48:19.252Z,18.66
2018-07-12T03:50:47.450Z,18.22
2018-07-12T03:53:14.275Z,18.20
2018-07-12T03:55:40.438Z,18.76
2018-07-12T03:58:08.357Z,18.99
2018-07-12T04:00:37.496Z,18.98
2018-07-12T04:03:04.744Z,18.51
2018-07-12T04:05:32.836Z,18.40
2018-07-12T04:08:02.486Z,18.42
2018-07-12T04:10:32.723Z,18.91
2018-07-12T04:12:59.901Z,18.45
2018-07-12T04:15:26.758Z,18.97
2018-07-12T04:17:53.833Z,18.55
2018-07-12T04:20:20.006Z,18.58
2018-07-12T04:22:46.717Z,18.59
2018-07-12T04:25:12.857Z,19.12
2018-07-12T04:27:40.091Z,19.37
2018-07-12T04:30:08.288Z,19.54
2018-07-12T04:32:34.403Z,19.66
2018-07-12T04:35:00.481Z,19.15
2018-07-12T04:37:26.550Z,19.08
2018-07-12T04:39:52.640Z,19.06
2018-07-12T04:42:18.695Z,18.99
2018-07-12T04:44:45.779Z,18.95
2018-07-12T04:47:11.855Z,18.98
2018-07-12T04:49:37.955Z,18.96
2018-07-12T04:52:04.038Z,18.91
2018-07-12T04:54:30.127Z,18.94
2018-07-12T04:56:56.723Z,18.89
2018-07-12T04:59:22.927Z,19.08
2018-07-12T05:01:49.328Z,19.09
2018-07-12T05:04:15.459Z,19.02
2018-07-12T05:06:41.536Z,18.90
2018-07-12T05:09:08.746Z,18.98
2018-07-12T05:11:34.824Z,19.04
2018-07-12T05:14:04.221Z,18.76
2018-07-12T05:16:30.299Z,18.73
2018-07-12T05:18:56.382Z,18.96
2018-07-12T05:21:22.466Z,19.01
2018-07-12T05:23:48.802Z,19.02
2018-07-12T05:26:14.883Z,18.97
2018-07-12T05:28:40.973Z,19.12
2018-07-12T05:31:07.107Z,19.19
2018-07-12T05:33:33.177Z,19.30
2018-07-12T05:36:00.080Z,19.21
2018-07-12T05:38:27.287Z,19.29
2018-07-12T05:40:56.476Z,19.36
2018-07-12T05:43:23.393Z,19.34
2018-07-12T05:45:50.400Z,19.53
2018-07-12T05:48:17.324Z,19.50
2018-07-12T05:50:49.684Z,19.69
2018-07-12T05:53:17.867Z,19.87
2018-07-12T05:55:44.770Z,19.97
2018-07-12T05:58:11.740Z,20.08
2018-07-12T06:00:38.863Z,20.25
2018-07-12T06:03:05.720Z,20.41
2018-07-12T06:05:32.615Z,20.79
2018-07-12T06:07:59.527Z,21.03
2018-07-12T06:10:27.398Z,21.14
2018-07-12T06:12:54.292Z,20.81
2018-07-12T06:15:21.190Z,21.09
2018-07-12T06:17:48.101Z,20.85
2018-07-12T06:20:15.043Z,20.46
2018-07-12T06:22:42.022Z,20.27
2018-07-12T06:25:08.892Z,20.12
2018-07-12T06:27:36.740Z,20.23
2018-07-12T06:30:04.551Z,20.35
2018-07-12T06:32:31.376Z,19.95
2018-07-12T06:34:58.273Z,19.93
2018-07-12T06:37:25.163Z,19.76
2018-07-12T06:39:53.057Z,19.53
2018-07-12T06:42:19.951Z,19.44
2018-07-12T06:44:46.867Z,19.25
2018-07-12T06:47:14.743Z,19.45
2018-07-12T06:49:41.680Z,19.52
2018-07-12T06:52:08.670Z,19.60
2018-07-12T06:54:35.554Z,19.60
2018-07-12T06:57:02.587Z,19.85
2018-07-12T06:59:29.500Z,19.90
2018-07-12T07:01:56.475Z,19.99
2018-07-12T07:04:23.364Z,19.99
2018-07-12T07:06:50.256Z,19.83
2018-07-12T07:09:17.169Z,20.29
2018-07-12T07:11:44.094Z,20.43
2018-07-12T07:14:11.027Z,20.62
2018-07-12T07:16:37.927Z,20.98
2018-07-12T07:19:04.868Z,20.94
2018-07-12T07:21:31.966Z,21.04
2018-07-12T07:23:59.032Z,21.38
2018-07-12T07:26:25.992Z,21.74
2018-07-12T07:28:52.877Z,21.45
2018-07-12T07:31:19.860Z,21.68
2018-07-12T07:33:46.765Z,21.59
2018-07-12T07:36:13.693Z,21.81
2018-07-12T07:38:40.896Z,22.01
2018-07-12T07:41:07.839Z,21.91
2018-07-12T07:43:34.747Z,21.86
2018-07-12T07:46:01.650Z,21.61
2018-07-12T07:48:29.177Z,21.69
2018-07-12T07:50:56.076Z,21.71
2018-07-12T07:53:22.980Z,22.08
2018-07-12T07:55:49.888Z,22.46
2018-07-12T07:58:16.793Z,22.65
2018-07-12T08:00:43.694Z,23.47
2018-07-12T08:03:10.608Z,24.57
2018-07-12T08:05:38.536Z,25.22
2018-07-12T08:08:05.823Z,24.36
2018-07-12T08:10:32.735Z,24.85
2018-07-12T08:12:59.645Z,23.89
2018-07-12T08:15:26.539Z,25.22
2018-07-12T08:17:53.466Z,25.34
2018-07-12T08:20:21.545Z,26.24
2018-07-12T08:22:48.465Z,25.82
2018-07-12T08:25:15.393Z,25.69
2018-07-12T08:27:53.933Z,26.56
2018-07-12T08:30:20.832Z,24.75
2018-07-12T08:32:47.724Z,25.22
2018-07-12T08:35:15.643Z,24.73
2018-07-12T08:37:42.540Z,24.50
2018-07-12T08:40:09.436Z,24.30
2018-07-12T08:42:36.385Z,24.07
2018-07-12T08:45:03.231Z,22.96
2018-07-12T08:47:30.129Z,23.44
2018-07-12T08:49:57.078Z,23.46
2018-07-12T08:52:23.977Z,24.26
2018-07-12T08:54:50.900Z,24.48
2018-07-12T08:57:17.801Z,25.94
2018-07-12T08:59:44.715Z,25.79
2018-07-12T09:02:12.784Z,26.24
2018-07-12T09:04:39.715Z,26.93
2018-07-12T09:07:06.708Z,26.00
2018-07-12T09:09:33.606Z,25.62
2018-07-12T09:12:00.520Z,26.28
2018-07-12T09:14:28.325Z,25.53
2018-07-12T09:16:55.227Z,25.08
2018-07-12T09:19:22.127Z,25.22
2018-07-12T09:21:49.084Z,25.68
2018-07-12T09:24:15.957Z,25.52
2018-07-12T09:26:42.846Z,23.83
2018-07-12T09:29:09.776Z,25.04
2018-07-12T09:31:36.664Z,24.82
2018-07-12T09:34:03.583Z,24.41
2018-07-12T09:36:30.619Z,25.50
2018-07-12T09:38:57.529Z,25.53
2018-07-12T09:41:24.563Z,25.09
2018-07-12T09:43:52.170Z,25.48
2018-07-12T09:46:19.217Z,26.45
2018-07-12T09:48:47.453Z,26.90
2018-07-12T09:51:14.756Z,27.54
2018-07-12T09:53:42.722Z,27.11
2018-07-12T09:56:09.686Z,26.63
2018-07-12T09:58:36.525Z,27.43
2018-07-12T10:01:09.099Z,27.20
2018-07-12T10:03:41.844Z,26.77
2018-07-12T10:06:15.558Z,25.23
2018-07-12T10:08:54.990Z,24.77
2018-07-12T10:11:27.719Z,24.77
2018-07-12T10:13:57.426Z,25.62
2018-07-12T10:16:30.265Z,25.42
2018-07-12T10:18:57.186Z,24.97
2018-07-12T10:21:25.807Z,24.99
2018-07-12T10:23:52.753Z,25.41
2018-07-12T10:26:19.740Z,26.18
2018-07-12T10:28:46.763Z,26.01
2018-07-12T10:31:13.672Z,26.45
2018-07-12T10:33:40.571Z,26.95
2018-07-12T10:36:07.469Z,27.45
2018-07-12T10:38:34.409Z,27.68
2018-07-12T10:41:01.319Z,27.76
2018-07-12T10:43:28.227Z,26.70
2018-07-12T10:45:55.179Z,26.17
2018-07-12T10:48:22.098Z,26.12
2018-07-12T10:50:49.024Z,25.38
2018-07-12T10:53:16.226Z,25.25
2018-07-12T10:55:43.200Z,26.94
2018-07-12T10:58:10.095Z,26.48
2018-07-12T11:00:36.990Z,26.96
2018-07-12T11:03:03.891Z,27.70
2018-07-12T11:05:30.782Z,27.24
2018-07-12T11:07:57.727Z,26.41
2018-07-12T11:10:24.678Z,25.97
2018-07-12T11:13:03.365Z,25.34
2018-07-12T11:15:30.272Z,25.85
2018-07-12T11:17:57.161Z,25.77
2018-07-12T11:20:24.080Z,25.71
2018-07-12T11:22:51.044Z,25.88
2018-07-12T11:25:18.932Z,26.20
2018-07-12T11:27:45.818Z,25.62
2018-07-12T11:30:12.748Z,24.89
2018-07-12T11:32:39.641Z,25.45
2018-07-12T11:35:06.637Z,25.50
2018-07-12T11:37:33.519Z,25.14
2018-07-12T11:40:00.414Z,25.99
2018-07-12T11:42:27.323Z,26.44
2018-07-12T11:44:54.337Z,26.24
2018-07-12T11:47:21.222Z,25.58
2018-07-12T11:49:48.115Z,25.44
2018-07-12T11:52:15.251Z,25.48
2018-07-12T11:54:42.144Z,25.93
2018-07-12T11:57:09.039Z,25.87
2018-07-12T11:59:35.946Z,26.65
2018-07-12T12:02:02.929Z,26.24
2018-07-12T12:04:29.859Z,26.08
2018-07-12T12:06:56.830Z,26.28
2018-07-12T12:09:23.673Z,26.78
2018-07-12T12:11:51.084Z,26.44
2018-07-12T12:14:18.005Z,25.91
2018-07-12T12:16:44.919Z,25.77
2018-07-12T12:19:11.848Z,26.53
2018-07-12T12:21:38.802Z,26.82
2018-07-12T12:24:05.712Z,27.06
2018-07-12T12:26:32.604Z,26.75
2018-07-12T12:29:00.293Z,26.94
2018-07-12T12:31:29.252Z,27.63
2018-07-12T12:33:56.153Z,27.95
2018-07-12T12:36:23.117Z,27.84
2018-07-12T12:38:50.717Z,27.65
2018-07-12T12:41:17.827Z,26.75
2018-07-12T12:43:44.751Z,26.04
2018-07-12T12:46:11.695Z,25.89
2018-07-12T12:48:38.697Z,25.69
2018-07-12T12:51:05.699Z,25.76
2018-07-12T12:53:32.595Z,26.84
2018-07-12T12:55:59.503Z,26.89
2018-07-12T12:58:26.448Z,27.13
2018-07-12T13:00:53.344Z,27.35
2018-07-12T13:03:20.244Z,27.54
2018-07-12T13:05:47.148Z,27.16
2018-07-12T13:08:14.050Z,27.84
2018-07-12T13:10:41.971Z,27.17
2018-07-12T13:13:08.914Z,27.25
2018-07-12T13:15:35.852Z,27.22
2018-07-12T13:18:02.767Z,26.59
2018-07-12T13:20:29.675Z,26.29
2018-07-12T13:22:56.562Z,26.32
2018-07-12T13:25:23.498Z,26.52
2018-07-12T13:27:50.492Z,27.07
2018-07-12T13:30:17.595Z,27.55
2018-07-12T13:32:44.569Z,28.29
2018-07-12T13:35:11.472Z,28.68
2018-07-12T13:37:38.421Z,29.52
2018-07-12T13:40:05.339Z,30.08
2018-07-12T13:42:32.317Z,29.64
2018-07-12T13:44:59.264Z,28.56
2018-07-12T13:47:26.187Z,28.48
2018-07-12T13:49:53.096Z,28.21
2018-07-12T13:52:19.999Z,28.51
2018-07-12T13:54:46.965Z,28.78
2018-07-12T13:57:13.853Z,28.44
2018-07-12T13:59:40.779Z,28.15
2018-07-12T14:02:07.700Z,27.34
2018-07-12T14:04:34.675Z,26.65
2018-07-12T14:07:01.597Z,26.50
2018-07-12T14:09:28.488Z,26.46
2018-07-12T14:11:55.439Z,26.92
2018-07-12T14:14:22.350Z,27.27
2018-07-12T14:16:49.273Z,27.61
2018-07-12T14:19:16.188Z,27.44
2018-07-12T14:21:43.107Z,27.74
2018-07-12T14:24:10.012Z,28.21
2018-07-12T14:26:36.958Z,28.56
2018-07-12T14:29:03.832Z,29.20
2018-07-12T14:31:30.759Z,29.05
2018-07-12T14:33:57.635Z,29.96
2018-07-12T14:36:24.548Z,29.93
2018-07-12T14:38:51.520Z,30.57
2018-07-12T14:41:18.435Z,31.09
2018-07-12T14:43:45.322Z,31.83
2018-07-12T14:46:12.208Z,32.14
2018-07-12T14:48:39.123Z,31.81
2018-07-12T14:51:06.599Z,30.48
2018-07-12T14:53:33.491Z,29.70
2018-07-12T14:56:00.396Z,30.19
2018-07-12T14:58:27.294Z,30.18
2018-07-12T15:00:54.346Z,29.76
2018-07-12T15:03:21.296Z,27.97
2018-07-12T15:05:48.210Z,27.34
2018-07-12T15:08:15.208Z,27.37
2018-07-12T15:10:42.175Z,28.34
2018-07-12T15:13:09.087Z,27.38
2018-07-12T15:15:35.982Z,26.89
2018-07-12T15:18:02.917Z,27.29
2018-07-12T15:20:29.835Z,27.72
2018-07-12T15:22:57.487Z,30.77
2018-07-12T15:25:24.389Z,33.36
2018-07-12T15:27:54.475Z,32.79
2018-07-12T15:30:21.986Z,33.12
2018-07-12T15:32:48.867Z,33.60
2018-07-12T15:35:15.815Z,31.97
2018-07-12T15:37:42.724Z,33.80
2018-07-12T15:40:09.622Z,35.13
2018-07-12T15:42:36.532Z,33.38
2018-07-12T15:45:03.937Z,33.45
2018-07-12T15:47:30.881Z,32.20
2018-07-12T15:49:57.817Z,32.43
2018-07-12T15:52:24.717Z,32.68
2018-07-12T15:54:51.620Z,33.97
2018-07-12T15:57:18.563Z,34.34
2018-07-12T15:59:45.480Z,33.22
2018-07-12T16:02:12.404Z,32.68
2018-07-12T16:04:39.275Z,33.18
2018-07-12T16:07:07.275Z,33.38
2018-07-12T16:09:35.056Z,34.55
2018-07-12T16:12:02.034Z,35.51
2018-07-12T16:14:31.221Z,36.29
2018-07-12T16:16:59.149Z,36.31
2018-07-12T16:19:26.028Z,36.11
2018-07-12T16:21:52.940Z,33.58
2018-07-12T16:24:19.871Z,32.96
2018-07-12T16:26:46.823Z,33.90
2018-07-12T16:29:13.704Z,34.66
2018-07-12T16:31:40.624Z,32.93
2018-07-12T16:34:07.694Z,31.69
2018-07-12T16:36:35.555Z,32.85
2018-07-12T16:39:04.582Z,33.98
2018-07-12T16:41:32.543Z,32.84
2018-07-12T16:43:59.459Z,33.52
2018-07-12T16:46:26.401Z,33.76
2018-07-12T16:48:53.328Z,32.33
2018-07-12T16:51:20.215Z,32.75
2018-07-12T16:53:47.135Z,33.22
2018-07-12T16:56:14.023Z,33.85
2018-07-12T16:58:42.011Z,33.72
2018-07-12T17:01:08.927Z,33.03
2018-07-12T17:03:35.887Z,33.38
2018-07-12T17:06:02.842Z,33.21
2018-07-12T17:08:30.568Z,33.31
2018-07-12T17:10:57.486Z,34.23
2018-07-12T17:13:24.372Z,33.68
2018-07-12T17:15:52.482Z,33.26
2018-07-12T17:18:22.602Z,33.70
2018-07-12T17:20:49.590Z,32.12
2018-07-12T17:23:16.635Z,34.04
2018-07-12T17:25:43.696Z,33.51
2018-07-12T17:28:10.737Z,31.80
2018-07-12T17:30:37.693Z,32.60
2018-07-12T17:33:05.687Z,32.93
2018-07-12T17:35:33.695Z,33.19
2018-07-12T17:38:01.763Z,33.09
2018-07-12T17:40:28.758Z,31.96
2018-07-12T17:42:55.668Z,31.78
2018-07-12T17:45:25.588Z,31.49
2018-07-12T17:47:52.548Z,32.36
2018-07-12T17:50:19.524Z,33.45
2018-07-12T17:52:46.426Z,33.27
2018-07-12T17:55:22.071Z,32.63
2018-07-12T17:57:49.174Z,32.81
2018-07-12T18:00:16.179Z,32.70
2018-07-12T18:02:43.126Z,32.41
2018-07-12T18:05:16.722Z,32.08
2018-07-12T18:07:46.607Z,31.66
2018-07-12T18:10:13.694Z,32.62
2018-07-12T18:12:41.681Z,32.36
2018-07-12T18:15:08.710Z,32.16
2018-07-12T18:17:35.642Z,33.22
2018-07-12T18:20:05.962Z,32.40
2018-07-12T18:22:32.991Z,32.04
2018-07-12T18:24:59.905Z,32.22
2018-07-12T18:27:26.798Z,32.21
2018-07-12T18:29:53.807Z,31.53
2018-07-12T18:32:20.840Z,30.42
2018-07-12T18:34:49.860Z,29.43
2018-07-12T18:37:18.570Z,29.36
2018-07-12T18:39:45.573Z,28.42
2018-07-12T18:42:12.691Z,27.00
2018-07-12T18:44:39.594Z,27.30
2018-07-12T18:47:06.955Z,26.81
2018-07-12T18:49:34.219Z,25.40
2018-07-12T18:52:01.257Z,24.77
2018-07-12T18:54:29.193Z,24.41
2018-07-12T18:56:56.084Z,24.14
2018-07-12T18:59:23.847Z,23.67
2018-07-12T19:01:53.800Z,23.67
2018-07-12T19:04:20.703Z,23.19
2018-07-12T19:06:50.748Z,23.12
2018-07-12T19:09:17.898Z,22.93
2018-07-12T19:11:45.876Z,23.36
2018-07-12T19:14:12.882Z,22.71
2018-07-12T19:16:39.826Z,22.39
2018-07-12T19:19:08.149Z,22.10
2018-07-12T19:21:36.173Z,21.89
2018-07-12T19:24:03.173Z,21.91
2018-07-12T19:26:30.247Z,22.25
2018-07-12T19:28:57.157Z,21.52
2018-07-12T19:31:25.124Z,21.13
2018-07-12T19:33:52.105Z,20.95
2018-07-12T19:36:19.677Z,20.68
2018-07-12T19:38:46.758Z,20.62
2018-07-12T19:41:13.727Z,21.24
2018-07-12T19:43:40.714Z,20.68
2018-07-12T19:46:14.535Z,20.43
2018-07-12T19:48:48.989Z,20.27
2018-07-12T19:51:18.990Z,20.33
2018-07-12T19:53:45.876Z,20.97
2018-07-12T19:56:12.792Z,20.52
2018-07-12T19:58:39.681Z,20.43
2018-07-12T20:01:06.688Z,21.03
2018-07-12T20:03:33.677Z,20.47
2018-07-12T20:06:00.524Z,20.34
2018-07-12T20:08:27.485Z,20.14
2018-07-12T20:11:01.974Z,19.73
2018-07-12T20:13:28.952Z,19.40
2018-07-12T20:15:55.872Z,19.48
2018-07-12T20:18:22.842Z,19.23
2018-07-12T20:20:49.760Z,18.95
2018-07-12T20:23:16.711Z,18.89
2018-07-12T20:25:43.607Z,18.67
2018-07-12T20:28:16.535Z,18.45
2018-07-12T20:30:43.482Z,18.90
2018-07-12T20:33:10.421Z,18.56
2018-07-12T20:35:37.335Z,18.31
2018-07-12T20:38:04.271Z,18.92
2018-07-12T20:40:31.203Z,18.37
2018-07-12T20:42:58.146Z,18.27
2018-07-12T20:45:25.131Z,18.22
2018-07-12T20:47:52.161Z,18.27
2018-07-12T20:50:19.262Z,18.32
2018-07-12T20:52:45.995Z,18.39
2018-07-12T20:55:12.979Z,18.33
2018-07-12T20:57:39.833Z,18.18
2018-07-12T21:00:06.762Z,18.32
2018-07-12T21:02:34.054Z,18.85
2018-07-12T21:05:00.951Z,18.66
2018-07-12T21:07:27.871Z,18.58
2018-07-12T21:09:55.769Z,18.62
2018-07-12T21:12:22.659Z,18.62
2018-07-12T21:14:49.594Z,18.58
2018-07-12T21:17:16.493Z,18.60
2018-07-12T21:19:43.377Z,18.42
2018-07-12T21:22:10.277Z,18.15
2018-07-12T21:24:37.177Z,18.14
2018-07-12T21:27:04.107Z,18.26
2018-07-12T21:29:31.024Z,18.26
2018-07-12T21:31:58.044Z,18.30
2018-07-12T21:34:27.959Z,18.33
2018-07-12T21:36:54.848Z,18.65
2018-07-12T21:39:21.800Z,18.05
2018-07-12T21:41:48.715Z,18.00
2018-07-12T21:44:15.605Z,18.02
2018-07-12T21:46:42.508Z,18.14
2018-07-12T21:49:09.405Z,18.23
2018-07-12T21:51:36.355Z,18.27
2018-07-12T21:54:03.258Z,18.38
2018-07-12T21:56:30.205Z,18.17
2018-07-12T21:58:57.119Z,17.91
2018-07-12T22:01:24.049Z,17.93
2018-07-12T22:03:50.956Z,17.88
2018-07-12T22:06:26.120Z,17.54
2018-07-12T22:08:53.635Z,18.08
2018-07-12T22:11:20.525Z,18.18
2018-07-12T22:13:47.455Z,17.74
2018-07-12T22:16:14.384Z,17.66
2018-07-12T22:18:42.761Z,17.59
2018-07-12T22:21:09.686Z,17.61
2018-07-12T22:23:36.681Z,17.68
2018-07-12T22:26:03.569Z,17.64
2018-07-12T22:28:31.044Z,17.60
2018-07-12T22:30:57.945Z,17.29
2018-07-12T22:33:24.865Z,17.16
2018-07-12T22:35:51.757Z,17.13
2018-07-12T22:38:18.647Z,17.63
2018-07-12T22:40:45.641Z,17.25
2018-07-12T22:43:12.546Z,17.23
2018-07-12T22:45:39.450Z,17.01
2018-07-12T22:48:06.369Z,17.12
2018-07-12T22:50:33.246Z,17.16
2018-07-12T22:53:00.139Z,17.23
2018-07-12T22:55:27.026Z,17.30
2018-07-12T22:57:53.981Z,17.25
2018-07-12T23:00:20.878Z,17.26
2018-07-12T23:02:47.780Z,16.94
2018-07-12T23:05:14.664Z,16.97
2018-07-12T23:07:41.683Z,16.86
2018-07-12T23:10:08.639Z,16.82
2018-07-12T23:12:35.539Z,16.94
2018-07-12T23:15:02.496Z,17.14
2018-07-12T23:17:29.395Z,17.16
2018-07-12T23:19:56.312Z,16.99
2018-07-12T23:22:23.258Z,17.01
2018-07-12T23:24:50.238Z,17.01
2018-07-12T23:27:17.210Z,17.54
2018-07-12T23:29:44.482Z,17.28
2018-07-12T23:32:11.403Z,17.10
2018-07-12T23:34:38.364Z,16.94
2018-07-12T23:37:05.295Z,16.75
2018-07-12T23:39:32.191Z,16.86
2018-07-12T23:41:59.090Z,16.73
2018-07-12T23:44:25.994Z,16.68
2018-07-12T23:46:52.854Z,16.67
2018-07-12T23:49:20.143Z,16.48
2018-07-12T23:51:47.039Z,16.50
2018-07-12T23:54:13.983Z,16.39
2018-07-12T23:56:40.903Z,16.43
2018-07-12T23:59:07.808Z,16.68
